createdAt,value
2023-04-11T00:02:02.764Z,32.40
2023-04-11T00:04:30.665Z,28.90
2023-04-11T00:06:58.294Z,27.65
2023-04-11T00:09:25.727Z,29.02
2023-04-11T00:11:53.334Z,28.13
2023-04-11T00:14:20.728Z,25.85
2023-04-11T00:16:49.955Z,23.40
2023-04-11T00:19:17.740Z,30.90
2023-04-11T00:21:45.280Z,26.83
2023-04-11T00:24:12.847Z,31.33
2023-04-11T00:26:40.559Z,23.40
2023-04-11T00:29:08.128Z,24.30
2023-04-11T00:31:35.669Z,32.35
2023-04-11T00:34:03.450Z,27.33
2023-04-11T00:36:31.965Z,32.38
2023-04-11T00:39:01.404Z,26.20
2023-04-11T00:41:33.845Z,27.55
2023-04-11T00:44:03.852Z,30.27
2023-04-11T00:46:31.977Z,26.10
2023-04-11T00:48:59.828Z,24.90
2023-04-11T00:51:28.691Z,25.58
2023-04-11T00:53:56.291Z,29.70
2023-04-11T00:56:24.146Z,30.17
2023-04-11T00:58:51.832Z,32.50
2023-04-11T01:01:20.082Z,33.90
2023-04-11T01:03:48.457Z,24.73
2023-04-11T01:06:18.985Z,30.85
2023-04-11T01:08:47.726Z,29.80
2023-04-11T01:11:18.244Z,26.08
2023-04-11T01:13:46.969Z,28.40
2023-04-11T01:16:15.391Z,35.90
2023-04-11T01:18:43.028Z,31.60
2023-04-11T01:21:10.816Z,29.65
2023-04-11T01:23:38.331Z,30.55
2023-04-11T01:26:06.435Z,28.05
2023-04-11T01:28:34.061Z,29.58
2023-04-11T01:31:03.901Z,25.48
2023-04-11T01:33:32.070Z,27.60
2023-04-11T01:36:00.925Z,29.30
2023-04-11T01:38:28.526Z,23.48
2023-04-11T01:40:57.380Z,30.23
2023-04-11T01:43:27.079Z,28.23
2023-04-11T01:45:54.691Z,28.63
2023-04-11T01:48:22.202Z,26.52
2023-04-11T01:50:52.005Z,26.23
2023-04-11T01:53:19.422Z,37.13
2023-04-11T01:55:46.975Z,25.60
2023-04-11T01:58:14.506Z,30.83
2023-04-11T02:00:43.246Z,27.63
2023-04-11T02:03:17.653Z,24.17
2023-04-11T02:05:47.446Z,24.25
2023-04-11T02:08:14.926Z,27.40
2023-04-11T02:10:42.618Z,32.40
2023-04-11T02:13:10.095Z,24.45
2023-04-11T02:15:37.759Z,25.80
2023-04-11T02:18:05.720Z,28.13
2023-04-11T02:20:34.114Z,21.27
2023-04-11T02:23:04.457Z,26.85
2023-04-11T02:25:32.026Z,22.10
2023-04-11T02:28:00.484Z,25.00
2023-04-11T02:30:28.209Z,19.60
2023-04-11T02:32:55.698Z,20.05
2023-04-11T02:35:23.206Z,22.88
2023-04-11T02:37:50.836Z,20.67
2023-04-11T02:40:18.450Z,20.60
2023-04-11T02:42:45.898Z,18.17
2023-04-11T02:45:13.515Z,21.92
2023-04-11T02:47:41.358Z,18.60
2023-04-11T02:50:10.026Z,20.83
2023-04-11T02:52:45.943Z,18.00
2023-04-11T02:55:16.382Z,15.80
2023-04-11T02:57:43.966Z,19.77
2023-04-11T03:00:14.333Z,19.05
2023-04-11T03:02:49.170Z,20.23
2023-04-11T03:05:21.313Z,15.27
2023-04-11T03:07:52.061Z,19.95
2023-04-11T03:10:19.655Z,19.88
2023-04-11T03:12:47.089Z,18.38
2023-04-11T03:15:15.681Z,20.40
2023-04-11T03:17:43.579Z,16.25
2023-04-11T03:20:19.711Z,19.60
2023-04-11T03:22:51.282Z,21.35
2023-04-11T03:25:20.338Z,20.33
2023-04-11T03:27:50.302Z,19.48
2023-04-11T03:30:18.012Z,22.08
2023-04-11T03:32:48.183Z,19.35
2023-04-11T03:35:15.724Z,20.75
2023-04-11T03:37:48.173Z,19.35
2023-04-11T03:40:18.757Z,22.90
2023-04-11T03:42:52.469Z,21.27
2023-04-11T03:45:25.417Z,20.02
2023-04-11T03:47:55.000Z,21.02
2023-04-11T03:50:26.382Z,21.65
2023-04-11T03:52:58.878Z,20.88
2023-04-11T03:55:26.722Z,20.45
2023-04-11T03:57:56.786Z,21.55
2023-04-11T04:00:25.566Z,18.95
2023-04-11T04:03:04.766Z,18.90
2023-04-11T04:05:33.908Z,20.30
2023-04-11T04:08:02.104Z,19.33
2023-04-11T04:10:49.910Z,19.98
2023-04-11T04:13:17.521Z,19.80
2023-04-11T04:15:53.826Z,16.85
2023-04-11T04:18:25.385Z,17.63
2023-04-11T04:20:52.927Z,16.40
2023-04-11T04:23:23.985Z,20.13
2023-04-11T04:26:25.258Z,17.13
2023-04-11T04:29:34.245Z,12.20
2023-04-11T04:32:11.337Z,13.07
2023-04-11T04:34:49.558Z,13.32
2023-04-11T04:37:27.338Z,16.05
2023-04-11T04:40:13.282Z,12.90
2023-04-11T04:42:58.541Z,17.13
2023-04-11T04:45:46.214Z,14.13
2023-04-11T04:48:18.918Z,13.98
2023-04-11T04:50:46.554Z,13.73
2023-04-11T04:53:14.288Z,13.13
2023-04-11T04:55:47.478Z,17.25
2023-04-11T04:58:17.039Z,13.55
2023-04-11T05:00:44.905Z,16.45
2023-04-11T05:03:21.064Z,15.10
2023-04-11T05:05:50.689Z,16.05
2023-04-11T05:08:20.087Z,15.02
2023-04-11T05:10:48.215Z,13.85
2023-04-11T05:13:16.777Z,14.88
2023-04-11T05:15:49.302Z,14.98
2023-04-11T05:18:17.088Z,13.57
2023-04-11T05:20:45.622Z,12.82
2023-04-11T05:23:18.660Z,15.43
2023-04-11T05:25:46.558Z,15.38
2023-04-11T05:28:16.415Z,14.80
2023-04-11T05:30:44.126Z,13.93
2023-04-11T05:33:14.688Z,13.32
2023-04-11T05:35:43.874Z,15.60
2023-04-11T05:38:11.708Z,19.83
2023-04-11T05:40:40.553Z,14.93
2023-04-11T05:43:08.980Z,14.43
2023-04-11T05:45:36.505Z,18.15
2023-04-11T05:48:08.044Z,18.92
2023-04-11T05:50:36.440Z,13.10
2023-04-11T05:53:04.096Z,16.33
2023-04-11T05:55:31.962Z,14.50
2023-04-11T05:58:01.777Z,18.50
2023-04-11T06:00:31.175Z,19.80
2023-04-11T06:03:00.625Z,18.08
2023-04-11T06:05:31.667Z,17.83
2023-04-11T06:08:00.192Z,19.05
2023-04-11T06:10:28.968Z,20.90
2023-04-11T06:12:57.349Z,18.85
2023-04-11T06:15:26.852Z,23.15
2023-04-11T06:17:55.017Z,16.30
2023-04-11T06:20:23.232Z,11.02
2023-04-11T06:22:53.759Z,15.27
2023-04-11T06:25:22.008Z,18.73
2023-04-11T06:27:50.618Z,17.70
2023-04-11T06:30:18.226Z,10.35
2023-04-11T06:32:46.076Z,16.95
2023-04-11T06:35:13.707Z,19.98
2023-04-11T06:37:42.986Z,15.13
2023-04-11T06:40:11.146Z,18.50
2023-04-11T06:42:39.437Z,22.50
2023-04-11T06:45:07.457Z,15.32
2023-04-11T06:47:34.904Z,18.20
2023-04-11T06:50:02.523Z,21.02
2023-04-11T06:52:31.026Z,20.40
2023-04-11T06:54:58.499Z,19.27
2023-04-11T06:57:26.009Z,17.73
2023-04-11T06:59:53.527Z,16.98
2023-04-11T07:02:22.075Z,20.92
2023-04-11T07:04:49.653Z,15.25
2023-04-11T07:07:17.127Z,14.63
2023-04-11T07:09:47.026Z,16.02
2023-04-11T07:12:14.538Z,22.52
2023-04-11T07:14:41.950Z,19.42
2023-04-11T07:17:09.507Z,22.17
2023-04-11T07:19:36.983Z,20.55
2023-04-11T07:22:04.965Z,24.45
2023-04-11T07:24:32.389Z,19.70
2023-04-11T07:27:01.837Z,22.80
2023-04-11T07:29:29.564Z,27.55
2023-04-11T07:31:57.006Z,20.70
2023-04-11T07:34:24.541Z,22.00
2023-04-11T07:36:52.113Z,21.20
2023-04-11T07:39:19.517Z,22.23
2023-04-11T07:41:47.037Z,25.70
2023-04-11T07:44:14.482Z,18.33
2023-04-11T07:46:44.685Z,22.65
2023-04-11T07:49:12.264Z,18.77
2023-04-11T07:51:39.997Z,21.63
2023-04-11T07:54:08.793Z,14.55
2023-04-11T07:56:36.304Z,20.08
2023-04-11T07:59:04.504Z,23.40
2023-04-11T08:01:32.157Z,18.38
2023-04-11T08:04:00.235Z,17.90
2023-04-11T08:06:29.355Z,17.08
2023-04-11T08:08:58.838Z,17.85
2023-04-11T08:11:26.499Z,20.42
2023-04-11T08:13:54.208Z,14.50
2023-04-11T08:16:21.888Z,18.05
2023-04-11T08:18:50.319Z,14.50
2023-04-11T08:21:17.836Z,16.33
2023-04-11T08:23:46.068Z,14.07
2023-04-11T08:26:15.241Z,17.92
2023-04-11T08:28:43.638Z,18.42
2023-04-11T08:31:13.432Z,15.90
2023-04-11T08:33:41.690Z,15.70
2023-04-11T08:36:10.695Z,12.10
2023-04-11T08:38:39.984Z,11.70
2023-04-11T08:41:09.744Z,12.48
2023-04-11T08:43:41.837Z,12.05
2023-04-11T08:46:09.556Z,11.88
2023-04-11T08:48:37.135Z,13.77
2023-04-11T08:51:05.493Z,11.45
2023-04-11T08:53:38.504Z,14.43
2023-04-11T08:56:06.587Z,12.52
2023-04-11T08:58:34.128Z,11.70
2023-04-11T09:01:26.196Z,14.93
2023-04-11T09:03:53.891Z,11.40
2023-04-11T09:06:21.806Z,13.48
2023-04-11T09:08:49.532Z,10.95
2023-04-11T09:11:17.944Z,12.05
2023-04-11T09:13:45.448Z,10.75
2023-04-11T09:16:14.695Z,14.05
2023-04-11T09:18:45.336Z,9.82
2023-04-11T09:21:15.585Z,11.13
2023-04-11T09:23:43.628Z,13.48
2023-04-11T09:26:12.956Z,9.88
2023-04-11T09:28:50.693Z,10.30
2023-04-11T09:31:18.489Z,12.45
2023-04-11T09:33:58.688Z,9.77
2023-04-11T09:36:29.455Z,15.00
2023-04-11T09:38:57.714Z,13.05
2023-04-11T09:41:32.054Z,16.80
2023-04-11T09:44:00.184Z,12.45
2023-04-11T09:46:28.176Z,12.35
2023-04-11T09:48:56.812Z,11.25
2023-04-11T09:51:35.900Z,10.00
2023-04-11T09:54:06.132Z,12.98
2023-04-11T09:56:37.174Z,13.25
2023-04-11T09:59:05.337Z,11.52
2023-04-11T10:01:33.528Z,12.07
2023-04-11T10:04:01.577Z,10.27
2023-04-11T10:06:38.881Z,10.35
2023-04-11T10:09:11.899Z,9.52
2023-04-11T10:11:44.181Z,9.45
2023-04-11T10:14:36.585Z,11.90
2023-04-11T10:17:20.611Z,8.02
2023-04-11T10:19:51.658Z,9.68
2023-04-11T10:22:40.892Z,8.30
2023-04-11T10:25:18.802Z,8.27
2023-04-11T10:27:53.486Z,9.45
2023-04-11T10:30:44.914Z,11.80
2023-04-11T10:33:17.862Z,8.80
2023-04-11T10:36:03.888Z,10.30
2023-04-11T10:38:37.541Z,9.98
2023-04-11T10:41:17.103Z,8.00
2023-04-11T10:43:47.410Z,9.52
2023-04-11T10:46:22.065Z,11.73
2023-04-11T10:49:03.880Z,11.13
2023-04-11T10:51:34.103Z,9.63
2023-04-11T10:54:02.522Z,8.75
2023-04-11T10:56:52.692Z,10.30
2023-04-11T10:59:32.339Z,10.32
2023-04-11T11:02:01.815Z,10.50
2023-04-11T11:04:39.666Z,9.68
2023-04-11T11:07:14.020Z,10.38
2023-04-11T11:09:41.633Z,12.32
2023-04-11T11:12:11.333Z,14.80
2023-04-11T11:14:42.749Z,10.23
2023-04-11T11:17:12.405Z,9.30
2023-04-11T11:19:47.453Z,9.00
2023-04-11T11:22:19.229Z,10.45
2023-04-11T11:24:46.672Z,9.75
2023-04-11T11:27:20.837Z,8.73
2023-04-11T11:29:48.821Z,8.82
2023-04-11T11:32:30.130Z,9.55
2023-04-11T11:34:58.808Z,8.45
2023-04-11T11:37:27.150Z,6.85
2023-04-11T11:39:54.720Z,7.43
2023-04-11T11:42:22.311Z,7.70
2023-04-11T11:44:49.853Z,9.40
2023-04-11T11:47:17.814Z,10.25
2023-04-11T11:49:50.899Z,9.32
2023-04-11T11:52:34.933Z,9.13
2023-04-11T11:55:26.677Z,8.68
2023-04-11T11:57:54.170Z,8.95
2023-04-11T12:00:26.095Z,9.10
2023-04-11T12:02:55.768Z,9.43
2023-04-11T12:05:30.581Z,10.57
2023-04-11T12:08:00.772Z,9.60
2023-04-11T12:10:40.283Z,9.02
2023-04-11T12:13:17.894Z,11.93
2023-04-11T12:15:50.661Z,9.30
2023-04-11T12:18:21.350Z,14.82
2023-04-11T12:20:49.797Z,9.75
2023-04-11T12:23:18.673Z,8.57
2023-04-11T12:25:47.200Z,9.45
2023-04-11T12:28:14.998Z,11.63
2023-04-11T12:30:42.532Z,10.23
2023-04-11T12:33:12.323Z,9.23
2023-04-11T12:35:39.911Z,11.43
2023-04-11T12:38:08.090Z,8.43
2023-04-11T12:40:35.992Z,9.68
2023-04-11T12:43:03.477Z,9.35
2023-04-11T12:45:32.608Z,6.10
2023-04-11T12:48:00.565Z,9.15
2023-04-11T12:50:28.088Z,11.27
2023-04-11T12:52:56.393Z,8.43
2023-04-11T12:55:24.090Z,7.00
2023-04-11T12:57:51.591Z,6.03
2023-04-11T13:00:19.365Z,7.78
2023-04-11T13:02:47.279Z,6.55
2023-04-11T13:05:15.694Z,13.70
2023-04-11T13:07:45.214Z,9.38
2023-04-11T13:10:16.427Z,8.10
2023-04-11T13:12:45.572Z,7.10
2023-04-11T13:15:15.383Z,8.20
2023-04-11T13:17:43.408Z,7.38
2023-04-11T13:20:11.718Z,6.65
2023-04-11T13:22:41.511Z,7.53
2023-04-11T13:25:10.530Z,7.32
2023-04-11T13:27:41.952Z,9.88
2023-04-11T13:30:10.729Z,8.25
2023-04-11T13:32:46.131Z,8.57
2023-04-11T13:35:13.785Z,10.05
2023-04-11T13:37:42.018Z,9.60
2023-04-11T13:40:12.408Z,6.35
2023-04-11T13:42:40.573Z,8.57
2023-04-11T13:45:08.697Z,11.43
2023-04-11T13:47:38.799Z,7.72
2023-04-11T13:50:09.015Z,9.43
2023-04-11T13:52:36.951Z,12.18
2023-04-11T13:55:07.122Z,9.77
2023-04-11T13:57:37.178Z,14.63
2023-04-11T14:00:10.057Z,7.88
2023-04-11T14:02:41.169Z,14.85
2023-04-11T14:05:09.748Z,7.50
2023-04-11T14:07:37.660Z,7.93
2023-04-11T14:10:11.414Z,9.45
2023-04-11T14:12:41.181Z,12.13
2023-04-11T14:15:09.476Z,10.40
2023-04-11T14:17:37.136Z,7.50
2023-04-11T14:20:09.730Z,10.55
2023-04-11T14:22:37.858Z,10.98
2023-04-11T14:25:09.932Z,15.90
2023-04-11T14:27:41.371Z,10.27
2023-04-11T14:30:13.121Z,7.53
2023-04-11T14:32:41.398Z,10.50
2023-04-11T14:35:09.897Z,8.35
2023-04-11T14:37:37.683Z,10.05
2023-04-11T14:40:05.988Z,11.50
2023-04-11T14:42:33.546Z,8.90
2023-04-11T14:45:01.103Z,12.65
2023-04-11T14:47:30.661Z,10.60
2023-04-11T14:49:58.572Z,9.95
2023-04-11T14:52:26.151Z,9.60
2023-04-11T14:54:53.617Z,9.18
2023-04-11T14:57:22.992Z,7.80
2023-04-11T14:59:50.620Z,8.85
2023-04-11T15:02:18.315Z,9.48
2023-04-11T15:04:45.997Z,11.07
2023-04-11T15:07:13.632Z,8.70
2023-04-11T15:09:41.271Z,10.02
2023-04-11T15:12:08.702Z,9.20
2023-04-11T15:14:36.363Z,8.90
2023-04-11T15:17:03.911Z,10.38
2023-04-11T15:19:31.677Z,9.52
2023-04-11T15:21:59.134Z,14.48
2023-04-11T15:24:26.812Z,13.38
2023-04-11T15:26:54.291Z,11.77
2023-04-11T15:29:22.054Z,18.70
2023-04-11T15:31:49.688Z,9.45
2023-04-11T15:34:17.420Z,15.40
2023-04-11T15:36:45.304Z,22.75
2023-04-11T15:39:12.852Z,15.75
2023-04-11T15:41:41.471Z,11.82
2023-04-11T15:44:09.332Z,14.63
2023-04-11T15:46:36.905Z,16.67
2023-04-11T15:49:04.564Z,10.35
2023-04-11T15:51:32.177Z,14.93
2023-04-11T15:53:59.656Z,11.80
2023-04-11T15:56:28.358Z,10.38
2023-04-11T15:58:56.380Z,17.52
2023-04-11T16:01:25.355Z,11.57
2023-04-11T16:03:54.344Z,14.85
2023-04-11T16:06:22.524Z,8.60
2023-04-11T16:08:51.118Z,17.95
2023-04-11T16:11:18.643Z,18.45
2023-04-11T16:13:46.197Z,11.98
2023-04-11T16:16:13.705Z,12.35
2023-04-11T16:18:41.645Z,28.23
2023-04-11T16:21:15.920Z,10.80
2023-04-11T16:23:43.567Z,15.73
2023-04-11T16:26:11.125Z,11.80
2023-04-11T16:28:38.634Z,19.27
2023-04-11T16:31:06.416Z,24.33
2023-04-11T16:33:33.925Z,18.73
2023-04-11T16:36:01.684Z,21.00
2023-04-11T16:38:29.179Z,17.90
2023-04-11T16:40:56.701Z,20.65
2023-04-11T16:43:24.131Z,18.55
2023-04-11T16:45:51.702Z,19.80
2023-04-11T16:48:19.134Z,19.08
2023-04-11T16:50:46.590Z,23.35
2023-04-11T16:53:14.206Z,18.98
2023-04-11T16:55:41.642Z,29.23
2023-04-11T16:58:10.408Z,25.40
2023-04-11T17:00:38.187Z,16.83
2023-04-11T17:03:06.100Z,26.58
2023-04-11T17:05:34.515Z,14.20
2023-04-11T17:08:02.038Z,20.65
2023-04-11T17:10:29.499Z,16.02
2023-04-11T17:12:58.552Z,18.85
2023-04-11T17:15:26.140Z,18.88
2023-04-11T17:17:53.723Z,16.20
2023-04-11T17:20:22.605Z,15.75
2023-04-11T17:22:50.534Z,14.30
2023-04-11T17:25:17.963Z,19.02
2023-04-11T17:27:45.431Z,23.20
2023-04-11T17:30:13.080Z,20.33
2023-04-11T17:32:40.836Z,30.77
2023-04-11T17:35:08.870Z,25.75
2023-04-11T17:37:36.474Z,22.02
2023-04-11T17:40:10.798Z,28.48
2023-04-11T17:42:38.628Z,19.38
2023-04-11T17:45:17.864Z,24.25
2023-04-11T17:47:49.055Z,24.55
2023-04-11T17:50:17.472Z,23.10
2023-04-11T17:52:47.335Z,28.95
2023-04-11T17:55:17.262Z,26.50
2023-04-11T17:57:48.853Z,21.35
2023-04-11T18:00:26.567Z,20.10
2023-04-11T18:02:57.842Z,22.42
2023-04-11T18:05:29.396Z,27.60
2023-04-11T18:07:59.176Z,18.30
2023-04-11T18:10:28.048Z,24.58
2023-04-11T18:12:57.026Z,29.40
2023-04-11T18:15:25.738Z,19.40
2023-04-11T18:17:53.470Z,21.88
2023-04-11T18:20:21.224Z,23.88
2023-04-11T18:22:54.928Z,22.70
2023-04-11T18:25:22.954Z,20.60
2023-04-11T18:27:50.631Z,26.13
2023-04-11T18:30:18.198Z,29.67
2023-04-11T18:32:50.997Z,34.28
2023-04-11T18:35:18.693Z,20.67
2023-04-11T18:37:46.589Z,28.13
2023-04-11T18:40:15.459Z,24.17
2023-04-11T18:42:49.293Z,28.92
2023-04-11T18:45:18.116Z,29.98
2023-04-11T18:48:47.366Z,24.85
2023-04-11T18:52:26.545Z,21.95
2023-04-11T18:59:29.125Z,27.23
2023-04-11T19:01:57.441Z,22.02
2023-04-11T19:04:25.377Z,30.58
2023-04-11T19:06:53.343Z,23.73
2023-04-11T19:09:22.090Z,25.98
2023-04-11T19:11:50.384Z,34.33
2023-04-11T19:14:20.089Z,31.52
2023-04-11T19:16:47.694Z,22.63
2023-04-11T19:19:15.179Z,31.40
2023-04-11T19:21:42.772Z,23.52
2023-04-11T19:24:10.526Z,27.52
2023-04-11T19:26:38.112Z,23.13
2023-04-11T19:29:05.897Z,28.33
2023-04-11T19:31:33.809Z,26.75
2023-04-11T19:34:04.502Z,27.00
2023-04-11T19:36:32.246Z,27.52
2023-04-11T19:38:59.801Z,23.27
2023-04-11T19:41:27.330Z,25.98
2023-04-11T19:43:55.054Z,25.92
2023-04-11T19:46:22.896Z,34.30
2023-04-11T19:48:51.548Z,28.60
2023-04-11T19:51:19.077Z,34.10
2023-04-11T19:53:48.456Z,29.42
2023-04-11T19:56:16.359Z,38.03
2023-04-11T19:58:43.977Z,34.90
2023-04-11T20:01:11.424Z,41.53
2023-04-11T20:03:40.715Z,27.75
2023-04-11T20:06:09.572Z,24.70
2023-04-11T20:08:38.219Z,26.90
2023-04-11T20:11:06.044Z,37.38
2023-04-11T20:13:36.017Z,34.92
2023-04-11T20:16:08.215Z,53.95
2023-04-11T20:18:35.852Z,33.65
2023-04-11T20:21:06.274Z,46.63
2023-04-11T20:23:35.486Z,43.65
2023-04-11T20:26:03.005Z,40.35
2023-04-11T20:28:30.610Z,38.53
2023-04-11T20:30:59.353Z,40.03
2023-04-11T20:33:27.848Z,34.97
2023-04-11T20:35:58.164Z,39.60
2023-04-11T20:38:27.496Z,27.63
2023-04-11T20:40:55.028Z,30.95
2023-04-11T20:43:25.349Z,28.95
2023-04-11T20:45:53.972Z,35.60
2023-04-11T20:48:26.082Z,30.35
2023-04-11T20:50:55.883Z,38.13
2023-04-11T20:53:23.382Z,26.88
2023-04-11T20:55:51.087Z,31.67
2023-04-11T20:58:21.208Z,31.50
2023-04-11T21:00:48.748Z,39.17
2023-04-11T21:03:16.704Z,48.63
2023-04-11T21:05:46.673Z,42.42
2023-04-11T21:08:14.378Z,38.05
2023-04-11T21:10:41.998Z,37.85
2023-04-11T21:13:09.836Z,41.17
2023-04-11T21:15:37.338Z,40.42
2023-04-11T21:18:07.415Z,27.35
2023-04-11T21:20:35.231Z,33.38
2023-04-11T21:23:03.019Z,43.83
2023-04-11T21:25:30.957Z,41.10
2023-04-11T21:27:58.528Z,38.70
2023-04-11T21:30:26.092Z,36.42
2023-04-11T21:32:53.824Z,23.67
2023-04-11T21:35:21.369Z,27.80
2023-04-11T21:37:49.331Z,26.63
2023-04-11T21:40:16.857Z,35.55
2023-04-11T21:42:44.467Z,26.40
2023-04-11T21:45:11.971Z,36.67
2023-04-11T21:47:39.528Z,21.38
2023-04-11T21:50:07.847Z,21.17
2023-04-11T21:52:35.396Z,32.72
2023-04-11T21:55:03.026Z,28.65
2023-04-11T21:57:33.061Z,30.10
2023-04-11T22:00:00.704Z,30.70
2023-04-11T22:02:28.286Z,38.50
2023-04-11T22:05:06.217Z,26.67
2023-04-11T22:07:48.308Z,26.92
2023-04-11T22:10:22.623Z,25.50
2023-04-11T22:12:53.965Z,31.48
2023-04-11T22:15:21.923Z,27.15
2023-04-11T22:17:50.988Z,27.65
2023-04-11T22:20:20.076Z,24.40
2023-04-11T22:22:48.085Z,27.10
2023-04-11T22:25:18.397Z,28.05
2023-04-11T22:27:45.881Z,32.42
2023-04-11T22:30:14.778Z,35.63
2023-04-11T22:32:42.296Z,32.47
2023-04-11T22:35:10.489Z,28.23
2023-04-11T22:37:37.984Z,23.42
2023-04-11T22:40:06.358Z,32.17
2023-04-11T22:42:34.145Z,29.17
2023-04-11T22:45:01.653Z,27.65
2023-04-11T22:47:32.760Z,24.33
2023-04-11T22:50:01.633Z,29.35
2023-04-11T22:52:30.329Z,26.50
2023-04-11T22:54:57.925Z,28.67
2023-04-11T22:57:25.392Z,30.13
2023-04-11T22:59:52.917Z,31.13
2023-04-11T23:02:20.443Z,32.78
2023-04-11T23:04:48.003Z,28.63
2023-04-11T23:07:16.987Z,27.90
2023-04-11T23:09:44.930Z,31.60
2023-04-11T23:12:12.958Z,29.63
2023-04-11T23:14:40.660Z,26.73
2023-04-11T23:17:08.312Z,30.75
2023-04-11T23:19:37.000Z,26.17
2023-04-11T23:22:05.131Z,29.48
2023-04-11T23:24:32.710Z,29.63
2023-04-11T23:27:00.212Z,27.88
2023-04-11T23:29:28.082Z,26.88
2023-04-11T23:31:55.493Z,26.58
2023-04-11T23:34:23.001Z,30.55
2023-04-11T23:36:50.471Z,33.67
2023-04-11T23:39:17.950Z,28.92
2023-04-11T23:41:46.028Z,31.73
2023-04-11T23:44:14.099Z,25.92
2023-04-11T23:46:41.894Z,25.38
2023-04-11T23:49:09.598Z,28.20
2023-04-11T23:51:37.101Z,26.45
2023-04-11T23:54:07.227Z,36.03
2023-04-11T23:56:34.707Z,35.38
2023-04-11T23:59:02.275Z,27.75
